sensor_id;sensor_type;location;lat;lon;timestamp;pressure;altitude;pressure_sealevel;temperature;humidity
53647;BME280;39550;52.230;5.194;2022-12-28T00:00:05;101347.94;;;4.85;88.43
53647;BME280;39550;52.230;5.194;2022-12-28T00:02:32;101342.78;;;4.84;88.37
53647;BME280;39550;52.230;5.194;2022-12-28T00:04:57;101344.47;;;4.83;87.51
53647;BME280;39550;52.230;5.194;2022-12-28T00:07:22;101332.56;;;4.84;88.32
53647;BME280;39550;52.230;5.194;2022-12-28T00:09:48;101322.34;;;4.84;88.40
53647;BME280;39550;52.230;5.194;2022-12-28T00:12:13;101314.69;;;4.84;87.84
53647;BME280;39550;52.230;5.194;2022-12-28T00:14:40;101308.78;;;4.85;88.57
53647;BME280;39550;52.230;5.194;2022-12-28T00:17:06;101289.94;;;4.83;87.67
53647;BME280;39550;52.230;5.194;2022-12-28T00:19:31;101296.69;;;4.81;87.74
53647;BME280;39550;52.230;5.194;2022-12-28T00:21:56;101291.69;;;4.84;87.94
53647;BME280;39550;52.230;5.194;2022-12-28T00:24:24;101289.94;;;4.83;87.71
53647;BME280;39550;52.230;5.194;2022-12-28T00:26:50;101272.03;;;4.81;88.19
53647;BME280;39550;52.230;5.194;2022-12-28T00:29:17;101266.13;;;4.82;88.12
53647;BME280;39550;52.230;5.194;2022-12-28T00:31:44;101260.94;;;4.81;87.87
53647;BME280;39550;52.230;5.194;2022-12-28T00:34:10;101247.34;;;4.82;88.00
53647;BME280;39550;52.230;5.194;2022-12-28T00:36:35;101238.03;;;4.82;87.92
53647;BME280;39550;52.230;5.194;2022-12-28T00:39:01;101232.81;;;4.79;88.32
53647;BME280;39550;52.230;5.194;2022-12-28T00:41:27;101226.88;;;4.80;87.74
53647;BME280;39550;52.230;5.194;2022-12-28T00:43:53;101230.31;;;4.81;88.48
53647;BME280;39550;52.230;5.194;2022-12-28T00:46:18;101225.31;;;4.84;87.99
53647;BME280;39550;52.230;5.194;2022-12-28T00:48:44;101225.31;;;4.84;88.51
53647;BME280;39550;52.230;5.194;2022-12-28T00:51:15;101232.16;;;4.85;87.74
53647;BME280;39550;52.230;5.194;2022-12-28T00:53:42;101224.44;;;4.83;87.97
53647;BME280;39550;52.230;5.194;2022-12-28T00:56:13;101217.59;;;4.82;88.08
53647;BME280;39550;52.230;5.194;2022-12-28T00:58:38;101211.59;;;4.82;88.44
53647;BME280;39550;52.230;5.194;2022-12-28T01:01:05;101206.50;;;4.82;88.11
53647;BME280;39550;52.230;5.194;2022-12-28T01:03:36;101210.00;;;4.84;88.65
53647;BME280;39550;52.230;5.194;2022-12-28T01:06:05;101199.78;;;4.84;87.86
53647;BME280;39550;52.230;5.194;2022-12-28T01:08:35;101188.72;;;4.83;88.74
53647;BME280;39550;52.230;5.194;2022-12-28T01:11:06;101177.59;;;4.83;88.06
53647;BME280;39550;52.230;5.194;2022-12-28T01:13:33;101161.44;;;4.82;88.25
53647;BME280;39550;52.230;5.194;2022-12-28T01:15:59;101165.63;;;4.82;88.23
53647;BME280;39550;52.230;5.194;2022-12-28T01:18:24;101162.28;;;4.83;88.15
53647;BME280;39550;52.230;5.194;2022-12-28T01:20:50;101169.94;;;4.83;87.74
53647;BME280;39550;52.230;5.194;2022-12-28T01:23:15;101160.63;;;4.83;87.97
53647;BME280;39550;52.230;5.194;2022-12-28T01:25:41;101153.81;;;4.84;88.53
53647;BME280;39550;52.230;5.194;2022-12-28T01:28:08;101154.63;;;4.83;87.98
53647;BME280;39550;52.230;5.194;2022-12-28T01:30:36;101138.50;;;4.84;87.89
53647;BME280;39550;52.230;5.194;2022-12-28T01:33:01;101142.75;;;4.83;88.25
53647;BME280;39550;52.230;5.194;2022-12-28T01:35:27;101131.66;;;4.83;88.52
53647;BME280;39550;52.230;5.194;2022-12-28T01:37:52;101123.19;;;4.84;87.73
53647;BME280;39550;52.230;5.194;2022-12-28T01:40:18;101131.66;;;4.83;87.82
53647;BME280;39550;52.230;5.194;2022-12-28T01:42:43;101127.44;;;4.83;88.10
53647;BME280;39550;52.230;5.194;2022-12-28T01:45:28;101133.38;;;4.84;88.58
53647;BME280;39550;52.230;5.194;2022-12-28T01:47:55;101130.88;;;4.85;88.56
53647;BME280;39550;52.230;5.194;2022-12-28T01:50:25;101111.31;;;4.86;87.96
53647;BME280;39550;52.230;5.194;2022-12-28T01:53:02;101110.41;;;4.84;87.78
53647;BME280;39550;52.230;5.194;2022-12-28T01:55:33;101112.22;;;4.86;88.13
53647;BME280;39550;52.230;5.194;2022-12-28T01:58:12;101106.22;;;4.86;88.08
53647;BME280;39550;52.230;5.194;2022-12-28T02:00:39;101092.53;;;4.84;88.61
53647;BME280;39550;52.230;5.194;2022-12-28T02:03:18;101099.38;;;4.85;88.27
53647;BME280;39550;52.230;5.194;2022-12-28T02:05:48;101082.41;;;4.87;88.00
53647;BME280;39550;52.230;5.194;2022-12-28T02:11:12;101077.25;;;4.85;88.57
53647;BME280;39550;52.230;5.194;2022-12-28T02:13:38;101069.66;;;4.87;88.45
53647;BME280;39550;52.230;5.194;2022-12-28T02:16:09;101068.84;;;4.88;88.15
53647;BME280;39550;52.230;5.194;2022-12-28T02:18:37;101065.47;;;4.89;88.09
53647;BME280;39550;52.230;5.194;2022-12-28T02:26:42;101063.75;;;4.88;88.23
53647;BME280;39550;52.230;5.194;2022-12-28T02:34:58;101056.19;;;4.91;88.04
53647;BME280;39550;52.230;5.194;2022-12-28T02:37:30;101053.63;;;4.91;88.16
53647;BME280;39550;52.230;5.194;2022-12-28T02:40:11;101051.88;;;4.90;88.69
53647;BME280;39550;52.230;5.194;2022-12-28T02:42:39;101055.31;;;4.90;88.39
53647;BME280;39550;52.230;5.194;2022-12-28T02:45:06;101046.78;;;4.90;88.39
53647;BME280;39550;52.230;5.194;2022-12-28T02:47:52;101041.66;;;4.90;88.05
53647;BME280;39550;52.230;5.194;2022-12-28T02:54:09;101046.78;;;4.90;89.00
53647;BME280;39550;52.230;5.194;2022-12-28T02:57:17;101041.66;;;4.90;88.84
53647;BME280;39550;52.230;5.194;2022-12-28T02:59:59;101045.97;;;4.91;88.67
53647;BME280;39550;52.230;5.194;2022-12-28T03:05:15;101034.06;;;4.91;88.68
53647;BME280;39550;52.230;5.194;2022-12-28T03:08:10;101025.59;;;4.92;88.67
53647;BME280;39550;52.230;5.194;2022-12-28T03:13:58;101016.19;;;4.91;88.47
53647;BME280;39550;52.230;5.194;2022-12-28T03:16:40;101006.03;;;4.93;89.05
53647;BME280;39550;52.230;5.194;2022-12-28T03:19:36;101008.50;;;4.91;89.11
53647;BME280;39550;52.230;5.194;2022-12-28T03:22:23;101011.97;;;4.92;88.56
53647;BME280;39550;52.230;5.194;2022-12-28T03:25:12;101011.97;;;4.92;89.27
53647;BME280;39550;52.230;5.194;2022-12-28T03:28:03;101000.09;;;4.94;89.06
53647;BME280;39550;52.230;5.194;2022-12-28T03:30:51;100994.94;;;4.92;89.36
53647;BME280;39550;52.230;5.194;2022-12-28T03:33:44;100998.38;;;4.93;88.76
53647;BME280;39550;52.230;5.194;2022-12-28T03:44:12;100983.97;;;4.95;88.51
53647;BME280;39550;52.230;5.194;2022-12-28T03:46:52;100989.06;;;4.95;88.85
53647;BME280;39550;52.230;5.194;2022-12-28T03:49:33;100966.81;;;4.91;88.86
53647;BME280;39550;52.230;5.194;2022-12-28T03:52:06;100974.59;;;4.95;89.15
53647;BME280;39550;52.230;5.194;2022-12-28T03:54:33;100970.38;;;4.96;88.65
53647;BME280;39550;52.230;5.194;2022-12-28T03:56:59;100969.50;;;4.95;88.97
53647;BME280;39550;52.230;5.194;2022-12-28T03:59:25;100968.69;;;4.97;89.11
53647;BME280;39550;52.230;5.194;2022-12-28T04:01:51;100960.16;;;4.96;89.32
53647;BME280;39550;52.230;5.194;2022-12-28T04:04:17;100967.03;;;4.97;88.79
53647;BME280;39550;52.230;5.194;2022-12-28T04:06:42;100971.28;;;4.98;88.96
53647;BME280;39550;52.230;5.194;2022-12-28T04:09:08;100963.63;;;4.98;89.29
53647;BME280;39550;52.230;5.194;2022-12-28T04:11:33;100953.41;;;4.98;89.17
53647;BME280;39550;52.230;5.194;2022-12-28T04:13:59;100960.25;;;4.99;89.36
53647;BME280;39550;52.230;5.194;2022-12-28T04:16:25;100947.53;;;5.01;89.19
53647;BME280;39550;52.230;5.194;2022-12-28T04:18:50;100941.56;;;5.00;88.79
53647;BME280;39550;52.230;5.194;2022-12-28T04:21:17;100940.69;;;5.00;89.59
53647;BME280;39550;52.230;5.194;2022-12-28T04:23:44;100941.56;;;5.00;89.80
53647;BME280;39550;52.230;5.194;2022-12-28T04:26:11;100931.34;;;5.00;89.22
53647;BME280;39550;52.230;5.194;2022-12-28T04:28:38;100931.34;;;5.00;89.54
53647;BME280;39550;52.230;5.194;2022-12-28T04:31:05;100928.81;;;5.00;89.57
53647;BME280;39550;52.230;5.194;2022-12-28T04:33:33;100928.81;;;5.00;89.62
53647;BME280;39550;52.230;5.194;2022-12-28T04:36:08;100943.31;;;5.01;88.82
53647;BME280;39550;52.230;5.194;2022-12-28T04:38:36;100931.44;;;5.03;89.56
53647;BME280;39550;52.230;5.194;2022-12-28T04:41:02;100922.09;;;5.04;89.52
53647;BME280;39550;52.230;5.194;2022-12-28T04:43:28;100929.63;;;4.99;89.22
53647;BME280;39550;52.230;5.194;2022-12-28T04:46:04;100924.72;;;5.05;88.83
53647;BME280;39550;52.230;5.194;2022-12-28T04:48:30;100909.09;;;4.96;89.94
53647;BME280;39550;52.230;5.194;2022-12-28T04:50:56;100896.38;;;4.98;89.75
53647;BME280;39550;52.230;5.194;2022-12-28T04:53:21;100829.41;;;4.52;89.31
53647;BME280;39550;52.230;5.194;2022-12-28T04:55:48;100906.75;;;5.04;88.86
53647;BME280;39550;52.230;5.194;2022-12-28T04:58:14;100881.81;;;4.95;89.62
53647;BME280;39550;52.230;5.194;2022-12-28T05:00:39;100879.16;;;4.92;88.96
53647;BME280;39550;52.230;5.194;2022-12-28T05:03:05;100888.75;;;4.99;89.01
53647;BME280;39550;52.230;5.194;2022-12-28T05:05:31;100868.75;;;4.86;89.37
53647;BME280;39550;52.230;5.194;2022-12-28T05:08:00;100895.78;;;5.06;89.99
53647;BME280;39550;52.230;5.194;2022-12-28T05:10:26;100887.13;;;5.01;89.77
53647;BME280;39550;52.230;5.194;2022-12-28T05:12:53;100883.56;;;4.96;89.70
53647;BME280;39550;52.230;5.194;2022-12-28T05:15:18;100894.06;;;5.05;89.15
53647;BME280;39550;52.230;5.194;2022-12-28T05:17:43;100892.41;;;5.07;89.18
53647;BME280;39550;52.230;5.194;2022-12-28T05:20:09;100915.44;;;5.09;89.67
53647;BME280;39550;52.230;5.194;2022-12-28T05:22:34;100845.59;;;4.80;89.25
53647;BME280;39550;52.230;5.194;2022-12-28T05:24:59;100872.47;;;4.95;89.25
53647;BME280;39550;52.230;5.194;2022-12-28T05:27:25;100838.75;;;4.78;89.77
53647;BME280;39550;52.230;5.194;2022-12-28T05:29:50;100801.69;;;4.63;89.23
53647;BME280;39550;52.230;5.194;2022-12-28T05:32:15;100859.66;;;4.94;90.00
53647;BME280;39550;52.230;5.194;2022-12-28T05:34:41;100831.09;;;4.78;90.22
53647;BME280;39550;52.230;5.194;2022-12-28T05:37:06;100894.19;;;5.10;90.60
53647;BME280;39550;52.230;5.194;2022-12-28T05:39:31;100857.38;;;5.03;90.49
53647;BME280;39550;52.230;5.194;2022-12-28T05:41:57;100868.53;;;5.05;90.48
53647;BME280;39550;52.230;5.194;2022-12-28T05:44:28;100879.56;;;5.04;89.88
53647;BME280;39550;52.230;5.194;2022-12-28T05:46:54;100882.13;;;5.04;90.24
53647;BME280;39550;52.230;5.194;2022-12-28T05:49:19;100882.13;;;5.04;90.67
53647;BME280;39550;52.230;5.194;2022-12-28T05:51:48;100821.41;;;4.68;89.85
53647;BME280;39550;52.230;5.194;2022-12-28T05:54:14;100882.28;;;5.10;90.44
53647;BME280;39550;52.230;5.194;2022-12-28T05:56:39;100807.63;;;4.63;90.11
53647;BME280;39550;52.230;5.194;2022-12-28T05:59:06;100816.44;;;4.73;90.27
53647;BME280;39550;52.230;5.194;2022-12-28T06:01:42;100803.38;;;4.64;90.61
53647;BME280;39550;52.230;5.194;2022-12-28T06:04:35;100743.69;;;4.31;90.10
53647;BME280;39550;52.230;5.194;2022-12-28T06:07:00;100790.59;;;4.62;89.59
53647;BME280;39550;52.230;5.194;2022-12-28T06:09:26;100881.53;;;5.13;89.99
53647;BME280;39550;52.230;5.194;2022-12-28T06:11:51;100877.38;;;5.17;89.97
53647;BME280;39550;52.230;5.194;2022-12-28T06:14:16;100820.06;;;4.80;90.33
53647;BME280;39550;52.230;5.194;2022-12-28T06:16:45;100808.84;;;4.74;90.61
53647;BME280;39550;52.230;5.194;2022-12-28T06:19:11;100875.69;;;5.17;90.40
53647;BME280;39550;52.230;5.194;2022-12-28T06:21:39;100829.69;;;4.88;90.32
53647;BME280;39550;52.230;5.194;2022-12-28T06:24:05;100765.44;;;4.47;90.24
53647;BME280;39550;52.230;5.194;2022-12-28T06:26:33;100883.25;;;5.14;89.99
53647;BME280;39550;52.230;5.194;2022-12-28T06:29:00;100879.00;;;5.15;90.42
53647;BME280;39550;52.230;5.194;2022-12-28T06:31:31;100853.97;;;5.03;90.58
53647;BME280;39550;52.230;5.194;2022-12-28T06:33:58;100783.84;;;4.64;90.27
53647;BME280;39550;52.230;5.194;2022-12-28T06:36:29;100805.59;;;4.80;90.04
53647;BME280;39550;52.230;5.194;2022-12-28T06:38:57;100811.59;;;4.81;90.60
53647;BME280;39550;52.230;5.194;2022-12-28T06:41:23;100783.84;;;4.64;90.40
53647;BME280;39550;52.230;5.194;2022-12-28T06:43:50;100843.75;;;5.03;90.43
53647;BME280;39550;52.230;5.194;2022-12-28T06:46:16;100874.88;;;5.18;90.53
53647;BME280;39550;52.230;5.194;2022-12-28T06:48:42;100751.09;;;4.51;90.52
53647;BME280;39550;52.230;5.194;2022-12-28T06:51:12;100863.84;;;5.19;91.29
53647;BME280;39550;52.230;5.194;2022-12-28T06:53:38;100763.91;;;4.52;90.18
53647;BME280;39550;52.230;5.194;2022-12-28T06:56:14;100816.19;;;4.92;91.32
53647;BME280;39550;52.230;5.194;2022-12-28T06:58:41;100850.09;;;5.16;91.13
53647;BME280;39550;52.230;5.194;2022-12-28T07:01:13;100862.13;;;5.20;91.54
53647;BME280;39550;52.230;5.194;2022-12-28T07:03:41;100863.88;;;5.21;91.32
53647;BME280;39550;52.230;5.194;2022-12-28T07:06:07;100862.22;;;5.23;90.72
53647;BME280;39550;52.230;5.194;2022-12-28T07:08:33;100857.94;;;5.22;91.03
53647;BME280;39550;52.230;5.194;2022-12-28T07:11:07;100857.13;;;5.23;91.30
53647;BME280;39550;52.230;5.194;2022-12-28T07:13:33;100858.00;;;5.23;90.46
53647;BME280;39550;52.230;5.194;2022-12-28T07:16:03;100858.00;;;5.23;91.44
53647;BME280;39550;52.230;5.194;2022-12-28T07:18:30;100855.50;;;5.25;90.98
53647;BME280;39550;52.230;5.194;2022-12-28T07:21:09;100863.16;;;5.25;91.34
53647;BME280;39550;52.230;5.194;2022-12-28T07:23:35;100860.59;;;5.25;91.11
53647;BME280;39550;52.230;5.194;2022-12-28T07:26:10;100863.19;;;5.26;90.85
53647;BME280;39550;52.230;5.194;2022-12-28T07:28:38;100863.19;;;5.26;90.64
53647;BME280;39550;52.230;5.194;2022-12-28T07:31:05;100865.78;;;5.28;90.66
53647;BME280;39550;52.230;5.194;2022-12-28T07:33:31;100877.75;;;5.29;90.90
53647;BME280;39550;52.230;5.194;2022-12-28T07:35:57;100870.91;;;5.28;91.08
53647;BME280;39550;52.230;5.194;2022-12-28T07:38:22;100873.50;;;5.29;91.40
53647;BME280;39550;52.230;5.194;2022-12-28T07:40:48;100857.19;;;5.26;91.58
53647;BME280;39550;52.230;5.194;2022-12-28T07:43:13;100876.00;;;5.28;92.14
53647;BME280;39550;52.230;5.194;2022-12-28T07:45:41;100862.22;;;5.23;91.10
53647;BME280;39550;52.230;5.194;2022-12-28T07:48:06;100859.03;;;5.30;92.31
53647;BME280;39550;52.230;5.194;2022-12-28T07:50:38;100859.03;;;5.30;92.31
53647;BME280;39550;52.230;5.194;2022-12-28T07:53:04;100865.84;;;5.29;91.93
53647;BME280;39550;52.230;5.194;2022-12-28T07:55:30;100864.13;;;5.30;91.75
53647;BME280;39550;52.230;5.194;2022-12-28T07:57:56;100847.06;;;5.27;91.68
53647;BME280;39550;52.230;5.194;2022-12-28T08:00:22;100843.81;;;5.33;91.52
53647;BME280;39550;52.230;5.194;2022-12-28T08:02:48;100848.03;;;5.33;92.18
53647;BME280;39550;52.230;5.194;2022-12-28T08:05:14;100854.03;;;5.33;92.24
53647;BME280;39550;52.230;5.194;2022-12-28T08:07:40;100842.91;;;5.33;92.10
53647;BME280;39550;52.230;5.194;2022-12-28T08:10:05;100827.38;;;5.25;92.24
53647;BME280;39550;52.230;5.194;2022-12-28T08:12:31;100840.41;;;5.34;91.78
53647;BME280;39550;52.230;5.194;2022-12-28T08:14:57;100844.91;;;5.41;92.47
53647;BME280;39550;52.230;5.194;2022-12-28T08:17:25;100845.97;;;5.50;91.27
53647;BME280;39550;52.230;5.194;2022-12-28T08:19:51;100839.88;;;5.44;91.02
53647;BME280;39550;52.230;5.194;2022-12-28T08:22:20;100854.28;;;5.42;90.79
53647;BME280;39550;52.230;5.194;2022-12-28T08:24:45;100850.81;;;5.40;90.50
53647;BME280;39550;52.230;5.194;2022-12-28T08:27:10;100847.47;;;5.41;91.26
53647;BME280;39550;52.230;5.194;2022-12-28T08:29:37;100858.53;;;5.42;91.80
53647;BME280;39550;52.230;5.194;2022-12-28T08:32:03;100852.44;;;5.38;90.98
53647;BME280;39550;52.230;5.194;2022-12-28T08:34:29;100848.31;;;5.42;91.55
53647;BME280;39550;52.230;5.194;2022-12-28T08:36:56;100855.13;;;5.41;91.83
53647;BME280;39550;52.230;5.194;2022-12-28T08:39:21;100838.00;;;5.39;91.99
53647;BME280;39550;52.230;5.194;2022-12-28T08:41:47;100850.06;;;5.43;92.57
53647;BME280;39550;52.230;5.194;2022-12-28T08:44:13;100844.94;;;5.43;91.26
53647;BME280;39550;52.230;5.194;2022-12-28T08:46:38;100863.69;;;5.43;91.41
53647;BME280;39550;52.230;5.194;2022-12-28T08:49:05;100856.00;;;5.43;91.99
53647;BME280;39550;52.230;5.194;2022-12-28T08:51:34;100853.50;;;5.45;92.33
53647;BME280;39550;52.230;5.194;2022-12-28T08:54:00;100854.38;;;5.45;92.34
53647;BME280;39550;52.230;5.194;2022-12-28T08:56:28;100853.53;;;5.46;91.43
53647;BME280;39550;52.230;5.194;2022-12-28T08:58:57;100851.00;;;5.46;92.20
53647;BME280;39550;52.230;5.194;2022-12-28T09:01:27;100839.09;;;5.47;92.48
53647;BME280;39550;52.230;5.194;2022-12-28T09:03:55;100863.75;;;5.46;91.66
53647;BME280;39550;52.230;5.194;2022-12-28T09:06:31;100862.94;;;5.48;91.34
53647;BME280;39550;52.230;5.194;2022-12-28T09:08:58;100859.59;;;5.49;91.69
53647;BME280;39550;52.230;5.194;2022-12-28T09:11:24;100862.94;;;5.48;91.30
53647;BME280;39550;52.230;5.194;2022-12-28T09:13:50;100859.59;;;5.49;91.93
53647;BME280;39550;52.230;5.194;2022-12-28T09:16:17;100857.03;;;5.49;91.67
53647;BME280;39550;52.230;5.194;2022-12-28T09:18:53;100855.31;;;5.49;91.30
53647;BME280;39550;52.230;5.194;2022-12-28T09:21:20;100851.06;;;5.50;91.38
53647;BME280;39550;52.230;5.194;2022-12-28T09:23:46;100845.97;;;5.50;91.92
53647;BME280;39550;52.230;5.194;2022-12-28T09:26:20;100852.81;;;5.51;91.62
53647;BME280;39550;52.230;5.194;2022-12-28T09:28:48;100854.56;;;5.52;91.25
53647;BME280;39550;52.230;5.194;2022-12-28T09:31:25;100842.66;;;5.54;91.36
53647;BME280;39550;52.230;5.194;2022-12-28T09:33:54;100852.88;;;5.54;92.21
53647;BME280;39550;52.230;5.194;2022-12-28T09:36:23;100858.88;;;5.54;91.87
53647;BME280;39550;52.230;5.194;2022-12-28T09:38:50;100856.34;;;5.54;90.86
53647;BME280;39550;52.230;5.194;2022-12-28T09:46:49;100852.13;;;5.56;92.27
53647;BME280;39550;52.230;5.194;2022-12-28T09:49:17;100853.81;;;5.56;91.61
53647;BME280;39550;52.230;5.194;2022-12-28T09:51:58;100853.34;;;5.69;91.60
53647;BME280;39550;52.230;5.194;2022-12-28T09:54:25;100857.72;;;5.73;92.19
53647;BME280;39550;52.230;5.194;2022-12-28T09:56:50;100844.75;;;5.67;91.28
53647;BME280;39550;52.230;5.194;2022-12-28T09:59:23;100845.50;;;5.63;92.18
53647;BME280;39550;52.230;5.194;2022-12-28T10:01:58;100853.97;;;5.62;92.14
53647;BME280;39550;52.230;5.194;2022-12-28T10:04:25;100848.81;;;5.60;91.40
53647;BME280;39550;52.230;5.194;2022-12-28T10:06:51;100842.03;;;5.61;91.51
53647;BME280;39550;52.230;5.194;2022-12-28T10:09:27;100838.59;;;5.60;92.63
53647;BME280;39550;52.230;5.194;2022-12-28T10:11:53;100830.88;;;5.59;91.72
53647;BME280;39550;52.230;5.194;2022-12-28T10:14:27;100830.88;;;5.59;92.33
53647;BME280;39550;52.230;5.194;2022-12-28T10:16:54;100834.25;;;5.58;91.61
53647;BME280;39550;52.230;5.194;2022-12-28T10:19:24;100828.38;;;5.60;91.83
53647;BME280;39550;52.230;5.194;2022-12-28T10:22:02;100830.06;;;5.60;91.38
53647;BME280;39550;52.230;5.194;2022-12-28T10:24:28;100823.31;;;5.62;91.89
53647;BME280;39550;52.230;5.194;2022-12-28T10:26:58;100823.38;;;5.63;92.44
53647;BME280;39550;52.230;5.194;2022-12-28T10:29:25;100822.47;;;5.63;91.86
53647;BME280;39550;52.230;5.194;2022-12-28T10:32:03;100824.22;;;5.64;92.37
53647;BME280;39550;52.230;5.194;2022-12-28T10:34:31;100816.56;;;5.64;92.37
53647;BME280;39550;52.230;5.194;2022-12-28T10:37:13;100820.84;;;5.65;92.52
53647;BME280;39550;52.230;5.194;2022-12-28T10:39:53;100814.00;;;5.64;91.58
53647;BME280;39550;52.230;5.194;2022-12-28T10:42:33;100820.84;;;5.65;91.87
53647;BME280;39550;52.230;5.194;2022-12-28T10:45:18;100832.78;;;5.66;91.69
53647;BME280;39550;52.230;5.194;2022-12-28T10:47:52;100809.38;;;5.83;91.57
53647;BME280;39550;52.230;5.194;2022-12-28T10:50:41;100819.44;;;5.76;91.51
53647;BME280;39550;52.230;5.194;2022-12-28T10:54:07;100824.47;;;5.73;92.16
53647;BME280;39550;52.230;5.194;2022-12-28T10:56:20;100813.38;;;5.73;91.80
53647;BME280;39550;52.230;5.194;2022-12-28T10:58:48;100808.22;;;5.71;91.33
53647;BME280;39550;52.230;5.194;2022-12-28T11:03:44;100804.88;;;5.74;91.90
53647;BME280;39550;52.230;5.194;2022-12-28T11:06:20;100793.81;;;5.73;91.85
53647;BME280;39550;52.230;5.194;2022-12-28T11:11:30;100780.16;;;5.74;91.76
53647;BME280;39550;52.230;5.194;2022-12-28T11:16:43;100775.84;;;5.72;91.65
53647;BME280;39550;52.230;5.194;2022-12-28T11:19:10;100774.19;;;5.74;92.84
53647;BME280;39550;52.230;5.194;2022-12-28T11:21:36;100766.50;;;5.72;91.54
53647;BME280;39550;52.230;5.194;2022-12-28T11:24:02;100763.13;;;5.73;92.79
53647;BME280;39550;52.230;5.194;2022-12-28T11:26:28;100759.72;;;5.74;92.59
53647;BME280;39550;52.230;5.194;2022-12-28T11:28:55;100752.91;;;5.73;91.97
53647;BME280;39550;52.230;5.194;2022-12-28T11:31:26;100763.13;;;5.73;92.42
53647;BME280;39550;52.230;5.194;2022-12-28T11:34:00;100749.50;;;5.74;91.29
53647;BME280;39550;52.230;5.194;2022-12-28T11:36:30;100756.34;;;5.75;92.17
53647;BME280;39550;52.230;5.194;2022-12-28T11:38:59;100742.75;;;5.76;91.94
53647;BME280;39550;52.230;5.194;2022-12-28T11:41:44;100746.97;;;5.76;92.35
53647;BME280;39550;52.230;5.194;2022-12-28T11:49:39;100732.50;;;5.76;91.74
53647;BME280;39550;52.230;5.194;2022-12-28T11:54:57;100728.25;;;5.77;92.88
53647;BME280;39550;52.230;5.194;2022-12-28T11:57:36;100723.13;;;5.77;92.65
53647;BME280;39550;52.230;5.194;2022-12-28T12:02:57;100717.56;;;5.92;93.88
53647;BME280;39550;52.230;5.194;2022-12-28T12:10:35;100732.75;;;5.86;92.84
53647;BME280;39550;52.230;5.194;2022-12-28T12:15:57;100729.28;;;5.84;92.75
53647;BME280;39550;52.230;5.194;2022-12-28T12:18:26;100727.53;;;5.83;92.83
53647;BME280;39550;52.230;5.194;2022-12-28T12:21:06;100724.97;;;5.83;92.46
53647;BME280;39550;52.230;5.194;2022-12-28T12:26:14;100703.00;;;5.89;92.01
53647;BME280;39550;52.230;5.194;2022-12-28T12:28:43;100704.69;;;5.89;93.01
53647;BME280;39550;52.230;5.194;2022-12-28T12:33:49;100692.69;;;5.86;93.01
53647;BME280;39550;52.230;5.194;2022-12-28T12:39:25;100683.31;;;5.87;93.26
53647;BME280;39550;52.230;5.194;2022-12-28T12:45:06;100662.00;;;5.86;92.25
53647;BME280;39550;52.230;5.194;2022-12-28T12:53:05;100656.03;;;5.86;93.03
53647;BME280;39550;52.230;5.194;2022-12-28T12:55:54;100662.00;;;5.86;93.13
53647;BME280;39550;52.230;5.194;2022-12-28T12:58:41;100651.03;;;5.90;92.29
53647;BME280;39550;52.230;5.194;2022-12-28T13:01:28;100644.50;;;6.02;92.58
53647;BME280;39550;52.230;5.194;2022-12-28T13:04:05;100640.16;;;5.99;92.36
53647;BME280;39550;52.230;5.194;2022-12-28T13:06:34;100626.81;;;6.11;92.43
53647;BME280;39550;52.230;5.194;2022-12-28T13:09:03;100619.09;;;6.09;92.59
53647;BME280;39550;52.230;5.194;2022-12-28T13:11:35;100626.81;;;6.11;92.86
53647;BME280;39550;52.230;5.194;2022-12-28T13:14:03;100609.75;;;6.11;91.50
53647;BME280;39550;52.230;5.194;2022-12-28T13:16:31;100602.03;;;6.08;91.66
53647;BME280;39550;52.230;5.194;2022-12-28T13:19:05;100595.94;;;6.05;91.94
53647;BME280;39550;52.230;5.194;2022-12-28T13:21:45;100593.38;;;6.03;92.58
53647;BME280;39550;52.230;5.194;2022-12-28T13:24:33;100582.25;;;6.01;91.69
53647;BME280;39550;52.230;5.194;2022-12-28T13:26:59;100507.00;;;5.55;92.62
53647;BME280;39550;52.230;5.194;2022-12-28T13:29:27;100526.00;;;5.66;92.30
53647;BME280;39550;52.230;5.194;2022-12-28T13:31:55;100432.06;;;5.18;92.76
53647;BME280;39550;52.230;5.194;2022-12-28T13:39:19;100545.06;;;6.17;92.23
53647;BME280;39550;52.230;5.194;2022-12-28T13:41:54;100494.16;;;5.90;92.85
53647;BME280;39550;52.230;5.194;2022-12-28T13:44:28;100504.59;;;5.99;92.89
53647;BME280;39550;52.230;5.194;2022-12-28T13:49:24;100468.34;;;5.77;92.93
53647;BME280;39550;52.230;5.194;2022-12-28T13:51:53;100361.41;;;5.17;92.33
53647;BME280;39550;52.230;5.194;2022-12-28T13:54:21;100414.13;;;5.53;92.08
53647;BME280;39550;52.230;5.194;2022-12-28T13:56:50;100446.72;;;5.65;92.39
53647;BME280;39550;52.230;5.194;2022-12-28T13:59:17;100438.31;;;5.69;92.86
53647;BME280;39550;52.230;5.194;2022-12-28T14:01:46;100439.25;;;5.72;92.31
53647;BME280;39550;52.230;5.194;2022-12-28T14:04:32;100421.94;;;5.60;92.47
53647;BME280;39550;52.230;5.194;2022-12-28T14:06:59;100481.69;;;6.04;92.69
53647;BME280;39550;52.230;5.194;2022-12-28T14:09:25;100462.56;;;5.88;91.96
53647;BME280;39550;52.230;5.194;2022-12-28T14:11:50;100435.25;;;5.85;92.49
53647;BME280;39550;52.230;5.194;2022-12-28T14:14:16;100418.75;;;5.71;92.11
53647;BME280;39550;52.230;5.194;2022-12-28T14:16:43;100409.31;;;5.67;92.35
53647;BME280;39550;52.230;5.194;2022-12-28T14:19:09;100460.41;;;6.06;91.44
53647;BME280;39550;52.230;5.194;2022-12-28T14:21:39;100458.72;;;6.05;92.13
53647;BME280;39550;52.230;5.194;2022-12-28T14:24:11;100446.75;;;6.04;91.54
53647;BME280;39550;52.230;5.194;2022-12-28T14:26:39;100403.69;;;5.83;92.33
53647;BME280;39550;52.230;5.194;2022-12-28T14:29:12;100324.38;;;5.37;91.46
53647;BME280;39550;52.230;5.194;2022-12-28T14:31:40;100437.38;;;6.05;92.04
53647;BME280;39550;52.230;5.194;2022-12-28T14:34:06;100348.59;;;5.58;91.70
53647;BME280;39550;52.230;5.194;2022-12-28T14:36:48;100417.75;;;6.04;92.32
53647;BME280;39550;52.230;5.194;2022-12-28T14:39:31;100330.66;;;5.55;91.93
53647;BME280;39550;52.230;5.194;2022-12-28T14:41:59;100407.41;;;5.99;92.61